This is the latest recevied weather packets stored in our database for station/object OK5TVR-5. If no packets are shown the sender has not sent any weather packets the latest 10 day(s).
| Time | Temp. | Humidity | Pressure | Rain* | Wind** | Luminosity | Snow |
|---|---|---|---|---|---|---|---|
| 1777642396 | 21.11° C | 33% | 1018.5 hPa | 0 mm | - | 199 W/m² | - |
| 1777641495 | 20.56° C | 33% | 1018.6 hPa | 0 mm | - | 227 W/m² | - |
| 1777641494 | 20.56° C | 33% | 1018.6 hPa | 0 mm | - | 227 W/m² | - |
| 1777638793 | 23.33° C | 31% | 1019.3 hPa | 0 mm | - | 283 W/m² | - |
| 1777638793 | 23.33° C | 31% | 1019.3 hPa | 0 mm | - | 283 W/m² | - |
| 1777637891 | 22.78° C | 30% | 1019.4 hPa | 0 mm | - | 309 W/m² | - |
| 1777637891 | 22.78° C | 30% | 1019.4 hPa | 0 mm | - | 309 W/m² | - |
| 1777637891 | 22.78° C | 30% | 1019.4 hPa | 0 mm | - | 309 W/m² | - |
| 1777636991 | 21.11° C | 34% | 1019.6 hPa | 0 mm | - | 333 W/m² | - |
| 1777636991 | 21.11° C | 34% | 1019.6 hPa | 0 mm | - | 333 W/m² | - |
| 1777635187 | 22.22° C | 34% | 1020.4 hPa | 0 mm | - | 366 W/m² | - |
| 1777635187 | 22.22° C | 34% | 1020.4 hPa | 0 mm | - | 366 W/m² | - |
| 1777635187 | 22.22° C | 34% | 1020.4 hPa | 0 mm | - | 366 W/m² | - |
| 1777634287 | 22.22° C | 36% | 1020.4 hPa | 0 mm | - | 388 W/m² | - |
| 1777634287 | 22.22° C | 36% | 1020.4 hPa | 0 mm | - | 388 W/m² | - |
| 1777634287 | 22.22° C | 36% | 1020.4 hPa | 0 mm | - | 388 W/m² | - |
| 1777633386 | 21.67° C | 37% | 1020.5 hPa | 0 mm | - | 402 W/m² | - |
| 1777632483 | 21.11° C | 32% | 1020.6 hPa | 0 mm | - | 431 W/m² | - |
| 1777631581 | 21.11° C | 34% | 1020.6 hPa | 0 mm | - | 431 W/m² | - |
| 1777631581 | 21.11° C | 34% | 1020.6 hPa | 0 mm | - | 431 W/m² | - |
| 1777630679 | 20.56° C | - | - | - | - | - | - |
| 1777630679 | 20.56° C | 34% | 1020.6 hPa | 0 mm | - | 411 W/m² | - |
| 1777629777 | 19.44° C | 39% | 1020.8 hPa | 0 mm | - | 410 W/m² | - |
| 1777629777 | 19.44° C | 39% | 1020.8 hPa | 0 mm | - | 410 W/m² | - |
| 1777628875 | 20° C | 39% | 1021.7 hPa | 0 mm | - | 399 W/m² | - |
* Rain latest hour (hover to see other rain measurements)
** Current wind speed in m/s (hover to see current wind gust speed)